Terminal Aerodrome Forecast
Issued by NWS

Home | Current Version | Previous Version | Text Only | Print | Product List | Glossary On
Versions: 1 2 3 4 5 6 7 8 9 10 11 12 13
000
FTUS45 KLKN 260538
TAFELY
TAF
KELY 260538Z 2606/2706 17007KT P6SM SCT150
     FM262000 20008G18KT P6SM OVC100
     FM270000 21007KT P6SM OVC060=

USA.gov is the U.S. government's official web portal to all federal, state and local government web resources and services.